Valley Peak, Santa Cruz Island Reserve, California Weather observations

Data are for 10 minute period ending at time listed.
 Day   Time   Solar   Ave.   Ave.  Ave.  Vector  Max.   Baro.   Total    
  of    of     Rad.   Air    Rel.  Wind   Wind   Wind  Press.  Precip.   
Year   Day            Temp.  Hum.  Speed  Dir.   Gust                    
2014   (PST)  Kw/m2    F      %     mph   deg.    mph    mb.     in.     
-------------------------------------------------------------------------
 327   14:40   0.31   67.8    36    7.5    29     9.4   970.2    0.00 
 327   14:50   0.24   65.7    35    8.0    10    10.4   970.2    0.00 
 327   15:00   0.27   64.7    38   10.6    15    13.0   970.1    0.00 
 327   15:10   0.22   64.6    39    9.7    12    11.5   970.0    0.00 
 327   15:20   0.17   64.3    37   10.8    11    13.2   970.1    0.00 
 327   15:30   0.14   63.8    37   10.2    14    13.2   970.2    0.00 
 327   15:40   0.14   64.1    37    8.8    19    11.2   970.3    0.00 
 327   15:50   0.11   63.6    37    6.7   358    10.6   970.4    0.00 
 327   16:00   0.11   65.5    28    6.0   340    11.1   970.5    0.00 
 327   16:10   0.09   66.6    30    4.2     6     7.7   970.5    0.00 
 327   16:20   0.07   65.3    27    6.6   344    11.4   970.6    0.00 
 327   16:30   0.04   65.5    24    6.9   332    11.2   970.5    0.00 
 327   16:40   0.02   64.9    24    7.7   352    12.9   970.5    0.00 
 327   16:50   0.01   64.2    25    8.4   346    11.4   970.5    0.00 
 327   17:00   0.00   64.1    25    8.7   355    11.8   970.5    0.00 
 327   17:10   0.00   64.1    25    8.3   360    11.5   970.5    0.00 
 327   17:20   0.00   63.4    26   10.2     0    14.8   970.6    0.00 
 327   17:30   0.00   63.8    25   10.1     4    13.9   970.6    0.00 
 327   17:40   0.00   62.6    28    9.4    10    12.7   970.7    0.00 
 327   17:50   0.00   63.5    26   11.0   352    15.2   970.7    0.00 
 327   18:00   0.00   64.0    25   10.8   352    14.8   970.8    0.00 
 327   18:10   0.00   63.3    26   11.6   358    17.5   970.7    0.00 
 327   18:20   0.00   62.9    26   11.8     4    16.0   970.7    0.00 
 327   18:30   0.00   63.0    26   11.9     0    16.1   970.8    0.00 
 327   18:40   0.00   63.7    25   11.9   359    16.8   970.9    0.00 
 327   18:50   0.00   63.8    25   12.1   355    16.0   971.0    0.00 
 327   19:00   0.00   63.7    25   13.4     2    18.9   970.9    0.00 
 327   19:10   0.00   63.4    26   13.6     5    17.0   970.9    0.00 
 327   19:20   0.00   63.4    26   13.2     4    17.5   971.1    0.00 
 327   19:30   0.00   63.7    26   12.7   354    16.2   971.3    0.00 
 327   19:40   0.00   64.2    25   12.3   352    15.1   971.3    0.00 
 327   19:50   0.00   63.9    26   11.2   356    14.2   971.4    0.00 
 327   20:00   0.00   63.2    27   10.4    16    13.2   971.5    0.00 
 327   20:10   0.00   61.8    30   11.8    21    15.4   971.5    0.00 
 327   20:20   0.00   61.5    32   13.2    24    16.4   971.5    0.00 
 327   20:30   0.00   61.4    33   13.6    24    15.4   971.5    0.00 
 327   20:40   0.00   61.9    33   12.7    22    14.5   971.6    0.00 
 327   20:50   0.00   62.3    32   12.7    18    15.3   971.6    0.00 
 327   21:00   0.00   63.1    30   10.3     8    12.9   971.6    0.00 
 327   21:10   0.00   63.4    29    9.8     7    12.6   971.8    0.00 
 327   21:20   0.00   63.2    29    8.2    10    12.1   971.9    0.00 
 327   21:30   0.00   63.4    28    5.5   349     7.5   971.9    0.00 
 327   21:40   0.00   63.7    26    5.4   333     7.2   972.0    0.00 
 327   21:50   0.00   64.3    25    7.5   349     8.3   972.0    0.00 
 327   22:00   0.00   64.7    24    8.1   347     9.4   972.0    0.00 
 327   22:10   0.00   64.6    24    8.5   333     9.7   972.1    0.00 
 327   22:20   0.00   64.0    24    5.8   318     8.0   972.2    0.00 
 327   22:30   0.00   64.1    24    6.2   335     7.6   972.3    0.00 
 327   22:40   0.00   63.6    26    9.3   346    11.5   972.1    0.00 
 327   22:50   0.00   63.0    28   11.8   354    13.4   972.0    0.00 
 327   23:00   0.00   62.2    29   11.4     8    14.0   972.0    0.00 
 327   23:10   0.00   61.0    32   11.1    13    13.0   971.9    0.00 
 327   23:20   0.00   61.1    32   11.2     9    13.9   971.8    0.00 
 327   23:30   0.00   61.1    32   11.8    15    14.4   971.8    0.00 
 327   23:40   0.00   60.8    33   12.3    18    15.2   971.8    0.00 
 327   23:50   0.00   61.2    30   13.4    11    16.7   971.9    0.00 
 328    0:00   0.00   62.3    27   13.9    11    16.9   971.8    0.00 
 328    0:10   0.00   60.9    33   14.3    11    17.8   971.9    0.00 
 328    0:20   0.00   60.2    32   14.7    11    17.3   971.9    0.00 
 328    0:30   0.00   60.3    30   14.3    12    17.4   971.9    0.00 
 328    0:40   0.00   60.0    28   14.1    14    16.9   971.9    0.00 
 328    0:50   0.00   59.8    27   14.0    10    17.0   971.8    0.00 
 328    1:00   0.00   60.7    24   13.6     4    17.0   971.8    0.00 
 328    1:10   0.00   62.4    21   14.8   360    17.0   971.6    0.00 
 328    1:20   0.00   63.4    19   14.4   354    15.9   971.6    0.00 
 328    1:30   0.00   63.3    19   13.9   353    16.3   971.6    0.00 
 328    1:40   0.00   62.8    19   13.2   356    15.6   971.6    0.00 
 328    1:50   0.00   62.5    19   14.2     1    17.3   971.6    0.00 
 328    2:00   0.00   62.1    20   14.5     5    18.0   971.5    0.00 
 328    2:10   0.00   62.0    20   15.1    12    18.3   971.6    0.00 
 328    2:20   0.00   61.9    21   15.7    12    18.9   971.7    0.00 
 328    2:30   0.00   62.2    19   15.3     6    19.1   971.6    0.00 
 328    2:40   0.00   62.7    17   13.3     5    17.0   971.6    0.00 
 328    2:50   0.00   62.9    15   14.2   357    15.5   971.7    0.00 
 328    3:00   0.00   63.3    13   14.1   355    14.9   971.7    0.00 
 328    3:10   0.00   63.6    12   13.3   355    14.6   971.7    0.00 
 328    3:20   0.00   63.4    12   13.0     1    15.5   971.7    0.00 
 328    3:30   0.00   64.5    10   14.5   357    15.8   971.6    0.00 
 328    3:40   0.00   65.0    10   13.6   358    17.3   971.5    0.00 
 328    3:50   0.00   65.1    11   12.8    13    18.3   971.6    0.00 
 328    4:00   0.00   64.5    11   12.0     9    16.7   971.6    0.00 
 328    4:10   0.00   64.4    12   12.3   359    19.6   971.6    0.00 
 328    4:20   0.00   64.2    12   12.1     4    17.3   971.6    0.00 
 328    4:30   0.00   63.9    13   12.6   360    17.9   971.6    0.00 
 328    4:40   0.00   63.5    14   12.5     8    16.5   971.7    0.00 
 328    4:50   0.00   62.9    15   13.1    20    15.4   971.7    0.00 
 328    5:00   0.00   62.7    16   11.4    12    16.8   971.8    0.00 
 328    5:10   0.00   62.4    16   11.4    12    17.1   971.8    0.00 
 328    5:20   0.00   62.4    16   11.6     8    14.7   971.8    0.00 
 328    5:30   0.00   62.2    17   12.7    12    16.7   971.9    0.00 
 328    5:40   0.00   62.1    16   12.9    18    16.6   972.0    0.00 
 328    5:50   0.00   62.1    16   12.7    23    15.6   972.0    0.00 
 328    6:00   0.00   61.9    17   12.7    20    15.6   972.1    0.00 
 328    6:10   0.00   61.5    19   13.3    20    15.6   972.2    0.00 
 328    6:20   0.00   61.0    20   12.1    21    14.5   972.2    0.00 
 328    6:30   0.00   60.8    21   12.4    22    14.1   972.4    0.00 
 328    6:40   0.00   60.7    20   11.9    20    14.1   972.4    0.00 
 328    6:50   0.00   60.9    20   11.2    20    13.2   972.5    0.00 
 328    7:00   0.03   61.3    19   10.5    19    12.8   972.6    0.00 
 328    7:10   0.06   61.3    21   11.3    22    13.2   972.6    0.00 
 328    7:20   0.09   61.1    22   10.5    25    13.4   972.8    0.00 
 328    7:30   0.13   61.2    22    8.5    28    11.3   973.0    0.00 
 328    7:40   0.15   60.8    25    6.7    34     9.3   973.3    0.00 
 328    7:50   0.18   60.7    27    7.5    37    11.0   973.4    0.00 
 328    8:00   0.21   61.2    30    5.7    45     9.6   973.6    0.00 
 328    8:10   0.24   61.6    32    5.1    48     8.3   973.7    0.00 
 328    8:20   0.27   62.7    32    6.2    54     7.7   973.9    0.00 
 328    8:30   0.31   64.0    30    6.2    58     9.4   974.0    0.00 
 328    8:40   0.33   65.1    26    6.4    64     9.3   974.0    0.00 
 328    8:50   0.34   65.9    23    8.7    62    12.2   974.1    0.00 
 328    9:00   0.35   66.3    20    8.2    60    11.8   974.1    0.00 
 328    9:10   0.38   67.1    19    7.9    61    12.4   974.1    0.00 
 328    9:20   0.41   67.8    19    6.9    58    11.0   974.2    0.00 
 328    9:30   0.46   68.6    18    7.3    58    10.9   974.2    0.00 
 328    9:40   0.47   69.5    16    6.2    48    13.7   974.3    0.00 
 328    9:50   0.49   69.5    17    8.1    46    13.9   974.4    0.00 
 328   10:00   0.53   69.7    17    8.6    46    14.6   974.4    0.00 
 328   10:10   0.53   70.1    18    7.5    42    12.3   974.5    0.00 
 328   10:20   0.54   70.9    18    7.0    52    12.3   974.5    0.00 
 328   10:30   0.57   72.6    17    6.0    52    10.2   974.5    0.00 
 328   10:40   0.58   73.5    17    7.2    43    10.6   974.5    0.00 
 328   10:50   0.59   72.7    17    9.3    46    18.2   974.5    0.00 
 328   11:00   0.60   72.3    16    8.5    50    16.1   974.5    0.00 
 328   11:10   0.61   72.1    15   10.1    43    18.5   974.4    0.00 
 328   11:20   0.61   71.9    16    7.9    46    16.0   974.3    0.00 
 328   11:30   0.61   72.5    16    8.0    39    15.0   974.2    0.00 
 328   11:40   0.61   72.6    16    7.8    42    15.6   974.1    0.00 
 328   11:50   0.61   72.8    17    6.9    45    16.6   974.0    0.00 
 328   12:00   0.61   73.3    15    8.4    46    21.9   973.8    0.00 
 328   12:10   0.61   73.5    14    8.4    55    18.6   973.8    0.00 
 328   12:20   0.60   74.8    14    6.6    57    20.5   973.8    0.00 
 328   12:30   0.60   74.2    15    7.2    47    15.9   973.7    0.00 
 328   12:40   0.59   73.6    15    8.5    48    17.7   973.5    0.00 
 328   12:50   0.57   73.7    15    6.8    46    14.5   973.5    0.00 
 328   13:00   0.56   73.2    16    8.6    43    17.5   973.5    0.00 
 328   13:10   0.55   73.9    16    9.6    60    17.7   973.5    0.00 
 328   13:20   0.53   74.5    16    7.1    51    16.0   973.4    0.00 
 328   13:30   0.51   73.8    16    8.5    44    18.8   973.3    0.00 
 328   13:40   0.49   73.1    18    7.3    40    14.1   973.3    0.00 
 328   13:50   0.47   72.2    19    8.8    37    17.6   973.3    0.00 
 328   14:00   0.45   72.0    20   10.5    37    16.2   973.3    0.00 
 328   14:10   0.43   71.0    21   12.4    30    18.3   973.2    0.00 
 328   14:20   0.40   70.8    21    9.4    31    16.3   973.2    0.00 
 328   14:30   0.38   70.8    21   10.3    34    17.9   973.3    0.00 

Return to Valley Peak, Santa Cruz Island Reserve graphs page.


Western Regional Climate Center,wrcc@dri.edu